createdAt,value
2018-07-12T00:01:22.208Z,98791.16
2018-07-12T00:03:49.408Z,98788.75
2018-07-12T00:06:16.664Z,98779.76
2018-07-12T00:08:43.878Z,98768.39
2018-07-12T00:11:11.110Z,98771.41
2018-07-12T00:13:38.310Z,98780.87
2018-07-12T00:16:05.556Z,98774.47
2018-07-12T00:18:32.750Z,98785.28
2018-07-12T00:21:00.026Z,98793.45
2018-07-12T00:23:27.292Z,98797.80
2018-07-12T00:25:54.523Z,98790.74
2018-07-12T00:28:21.718Z,98796.30
2018-07-12T00:30:48.959Z,98791.94
2018-07-12T00:33:16.173Z,98793.80
2018-07-12T00:35:43.410Z,98791.79
2018-07-12T00:38:10.603Z,98794.34
2018-07-12T00:40:38.009Z,98793.34
2018-07-12T00:43:05.221Z,98786.64
2018-07-12T00:45:32.485Z,98779.13
2018-07-12T00:47:59.673Z,98783.34
2018-07-12T00:50:26.901Z,98791.90
2018-07-12T00:52:54.096Z,98792.25
2018-07-12T00:55:21.347Z,98786.35
2018-07-12T00:57:48.539Z,98779.59
2018-07-12T01:00:15.782Z,98784.64
2018-07-12T01:02:42.978Z,98782.63
2018-07-12T01:05:10.198Z,98788.15
2018-07-12T01:07:37.402Z,98793.36
2018-07-12T01:10:04.704Z,98793.84
2018-07-12T01:12:31.903Z,98794.02
2018-07-12T01:14:59.190Z,98790.32
2018-07-12T01:17:26.526Z,98786.80
2018-07-12T01:19:53.802Z,98797.09
2018-07-12T01:22:20.999Z,98787.19
2018-07-12T01:24:48.189Z,98791.41
2018-07-12T01:27:15.433Z,98787.71
2018-07-12T01:29:42.622Z,98786.36
2018-07-12T01:32:09.863Z,98783.84
2018-07-12T01:34:37.056Z,98791.41
2018-07-12T01:37:04.314Z,98799.13
2018-07-12T01:39:31.515Z,98797.44
2018-07-12T01:41:58.735Z,98797.10
2018-07-12T01:44:25.972Z,98795.77
2018-07-12T01:46:53.207Z,98790.61
2018-07-12T01:49:20.417Z,98790.10
2018-07-12T01:51:47.667Z,98788.09
2018-07-12T01:54:14.850Z,98788.37
2018-07-12T01:56:42.074Z,98787.14
2018-07-12T01:59:09.275Z,98788.16
2018-07-12T02:01:36.653Z,98789.03
2018-07-12T02:04:03.909Z,98787.37
2018-07-12T02:06:31.139Z,98786.86
2018-07-12T02:08:58.322Z,98793.24
2018-07-12T02:11:25.746Z,98795.92
2018-07-12T02:13:53.005Z,98795.76
2018-07-12T02:16:20.236Z,98792.91
2018-07-12T02:18:47.433Z,98793.25
2018-07-12T02:21:14.667Z,98793.75
2018-07-12T02:23:41.858Z,98788.87
2018-07-12T02:26:09.103Z,98786.70
2018-07-12T02:28:36.303Z,98784.84
2018-07-12T02:31:03.558Z,98786.37
2018-07-12T02:33:30.825Z,98790.91
2018-07-12T02:35:58.095Z,98784.02
2018-07-12T02:38:25.287Z,98784.56
2018-07-12T02:40:52.548Z,98777.55
2018-07-12T02:43:19.851Z,98776.00
2018-07-12T02:45:47.062Z,98776.47
2018-07-12T02:48:14.367Z,98771.94
2018-07-12T02:50:41.568Z,98764.88
2018-07-12T02:53:08.875Z,98768.73
2018-07-12T02:55:36.088Z,98765.50
2018-07-12T02:58:03.306Z,98763.14
2018-07-12T03:00:30.503Z,98760.64
2018-07-12T03:02:57.744Z,98766.83
2018-07-12T03:05:24.935Z,98777.39
2018-07-12T03:07:52.175Z,98778.03
2018-07-12T03:10:19.378Z,98783.23
2018-07-12T03:12:46.594Z,98781.80
2018-07-12T03:15:13.806Z,98785.88
2018-07-12T03:17:41.168Z,98789.91
2018-07-12T03:20:08.380Z,98794.63
2018-07-12T03:22:35.627Z,98795.44
2018-07-12T03:25:02.825Z,98794.77
2018-07-12T03:27:30.087Z,98789.11
2018-07-12T03:29:57.282Z,98800.34
2018-07-12T03:32:24.510Z,98795.30
2018-07-12T03:34:51.695Z,98790.38
2018-07-12T03:37:18.953Z,98800.41
2018-07-12T03:39:46.165Z,98794.44
2018-07-12T03:42:13.400Z,98800.05
2018-07-12T03:44:40.657Z,98802.02
2018-07-12T03:47:07.901Z,98808.38
2018-07-12T03:49:35.095Z,98799.39
2018-07-12T03:52:02.323Z,98809.47
2018-07-12T03:54:29.525Z,98807.77
2018-07-12T03:56:56.791Z,98808.73
2018-07-12T03:59:23.988Z,98813.47
2018-07-12T04:01:51.246Z,98815.27
2018-07-12T04:04:18.509Z,98808.60
2018-07-12T04:06:45.700Z,98808.94
2018-07-12T04:09:12.958Z,98813.08
2018-07-12T04:11:40.216Z,98812.22
2018-07-12T04:14:07.447Z,98814.89
2018-07-12T04:16:34.664Z,98818.52
2018-07-12T04:19:01.913Z,98822.78
2018-07-12T04:21:29.145Z,98824.16
2018-07-12T04:23:56.398Z,98822.21
2018-07-12T04:26:23.590Z,98818.91
2018-07-12T04:28:50.828Z,98819.70
2018-07-12T04:31:18.022Z,98817.29
2018-07-12T04:33:45.260Z,98817.62
2018-07-12T04:36:12.476Z,98817.20
2018-07-12T04:38:39.743Z,98822.19
2018-07-12T04:41:06.935Z,98817.88
2018-07-12T04:43:34.171Z,98812.66
2018-07-12T04:46:01.388Z,98814.51
2018-07-12T04:48:28.631Z,98818.78
2018-07-12T04:50:55.826Z,98820.64
2018-07-12T04:53:23.356Z,98827.19
2018-07-12T04:55:50.558Z,98823.89
2018-07-12T04:58:17.884Z,98823.88
2018-07-12T05:00:45.047Z,98820.52
2018-07-12T05:03:12.276Z,98819.59
2018-07-12T05:05:39.488Z,98816.57
2018-07-12T05:08:09.809Z,98812.55
2018-07-12T05:10:37.833Z,98811.41
2018-07-12T05:13:05.119Z,98812.61
2018-07-12T05:15:32.418Z,98825.91
2018-07-12T05:17:59.655Z,98814.66
2018-07-12T05:20:26.910Z,98813.98
2018-07-12T05:22:54.168Z,98808.98
2018-07-12T05:25:21.384Z,98807.36
2018-07-12T05:27:48.582Z,98816.38
2018-07-12T05:30:15.827Z,98814.69
2018-07-12T05:32:43.019Z,98809.72
2018-07-12T05:35:10.243Z,98813.24
2018-07-12T05:37:38.611Z,98809.03
2018-07-12T05:40:07.238Z,98801.64
2018-07-12T05:42:41.896Z,98805.00
2018-07-12T05:45:10.194Z,98804.81
2018-07-12T05:47:38.588Z,98808.71
2018-07-12T05:50:06.966Z,98808.34
2018-07-12T05:52:35.234Z,98807.02
2018-07-12T05:55:03.583Z,98812.20
2018-07-12T05:57:31.979Z,98808.01
2018-07-12T06:00:01.040Z,98809.38
2018-07-12T06:02:29.318Z,98815.75
2018-07-12T06:04:57.760Z,98815.67
2018-07-12T06:07:30.284Z,98816.70
2018-07-12T06:09:58.676Z,98826.94
2018-07-12T06:12:27.134Z,98836.41
2018-07-12T06:14:55.625Z,98842.97
2018-07-12T06:17:24.001Z,98838.57
2018-07-12T06:19:52.439Z,98836.40
2018-07-12T06:22:20.806Z,98842.98
2018-07-12T06:24:49.228Z,98846.68
2018-07-12T06:27:17.647Z,98851.06
2018-07-12T06:29:45.992Z,98842.31
2018-07-12T06:32:16.825Z,98831.23
2018-07-12T06:34:45.190Z,98835.25
2018-07-12T06:37:13.538Z,98839.39
2018-07-12T06:39:41.807Z,98836.86
2018-07-12T06:42:10.091Z,98826.92
2018-07-12T06:44:38.505Z,98833.44
2018-07-12T06:47:06.917Z,98829.97
2018-07-12T06:49:35.484Z,98833.66
2018-07-12T06:52:03.877Z,98830.70
2018-07-12T06:54:32.229Z,98832.36
2018-07-12T06:57:00.507Z,98837.75
2018-07-12T06:59:28.940Z,98856.54
2018-07-12T07:01:57.222Z,98852.77
2018-07-12T07:04:25.700Z,98846.44
2018-07-12T07:06:53.980Z,98849.65
2018-07-12T07:09:22.378Z,98849.98
2018-07-12T07:11:50.896Z,98846.39
2018-07-12T07:14:19.334Z,98846.19
2018-07-12T07:16:47.654Z,98844.98
2018-07-12T07:19:15.967Z,98843.13
2018-07-12T07:21:44.259Z,98850.83
2018-07-12T07:24:12.603Z,98852.74
2018-07-12T07:26:40.950Z,98861.76
2018-07-12T07:29:09.289Z,98868.26
2018-07-12T07:31:37.559Z,98867.39
2018-07-12T07:34:05.874Z,98869.25
2018-07-12T07:36:34.207Z,98871.73
2018-07-12T07:39:02.521Z,98871.44
2018-07-12T07:41:30.882Z,98873.98
2018-07-12T07:43:59.158Z,98872.09
2018-07-12T07:46:27.470Z,98880.13
2018-07-12T07:48:55.747Z,98876.92
2018-07-12T07:51:24.155Z,98870.87
2018-07-12T07:53:52.435Z,98870.14
2018-07-12T07:56:20.796Z,98873.45
2018-07-12T07:58:49.077Z,98866.16
2018-07-12T08:01:17.478Z,98866.03
2018-07-12T08:03:45.796Z,98853.73
2018-07-12T08:06:14.174Z,98854.58
2018-07-12T08:08:42.511Z,98853.72
2018-07-12T08:11:10.903Z,98858.30
2018-07-12T08:13:39.203Z,98852.36
2018-07-12T08:16:07.576Z,98853.13
2018-07-12T08:18:35.810Z,98853.69
2018-07-12T08:21:06.059Z,98857.83
2018-07-12T08:23:34.372Z,98844.65
2018-07-12T08:26:02.705Z,98850.98
2018-07-12T08:28:31.100Z,98849.77
2018-07-12T08:30:59.403Z,98850.00
2018-07-12T08:33:27.761Z,98856.11
2018-07-12T08:35:56.017Z,98857.92
2018-07-12T08:38:24.297Z,98862.25
2018-07-12T08:40:52.739Z,98864.26
2018-07-12T08:43:21.084Z,98860.28
2018-07-12T08:45:49.370Z,98868.05
2018-07-12T08:48:17.699Z,98863.27
2018-07-12T08:50:46.035Z,98855.19
2018-07-12T08:53:14.436Z,98859.69
2018-07-12T08:55:43.808Z,98853.64
2018-07-12T08:58:12.171Z,98850.37
2018-07-12T09:00:42.242Z,98844.41
2018-07-12T09:03:13.226Z,98851.66
2018-07-12T09:05:41.770Z,98848.50
2018-07-12T09:08:10.190Z,98850.37
2018-07-12T09:10:38.471Z,98854.27
2018-07-12T09:13:06.907Z,98870.14
2018-07-12T09:15:35.310Z,98886.18
2018-07-12T09:18:03.618Z,98864.02
2018-07-12T09:20:31.967Z,98869.33
2018-07-12T09:23:00.337Z,98872.81
2018-07-12T09:25:29.483Z,98869.91
2018-07-12T09:27:57.791Z,98877.32
2018-07-12T09:30:26.155Z,98872.69
2018-07-12T09:32:54.526Z,98873.70
2018-07-12T09:35:22.915Z,98869.02
2018-07-12T09:37:51.399Z,98860.95
2018-07-12T09:40:19.678Z,98868.28
2018-07-12T09:42:47.987Z,98864.98
2018-07-12T09:45:16.335Z,98876.59
2018-07-12T09:47:44.740Z,98871.25
2018-07-12T09:50:13.067Z,98861.78
2018-07-12T09:52:41.382Z,98857.48
2018-07-12T09:55:09.662Z,98862.06
2018-07-12T09:57:49.405Z,98868.92
2018-07-12T10:00:17.690Z,98872.94
2018-07-12T10:02:51.413Z,98880.14
2018-07-12T10:05:25.032Z,98870.26
2018-07-12T10:07:58.937Z,98865.87
2018-07-12T10:10:30.122Z,98868.61
2018-07-12T10:13:03.747Z,98875.50
2018-07-12T10:15:37.455Z,98872.67
2018-07-12T10:18:11.035Z,98873.60
2018-07-12T10:23:06.674Z,98869.10
2018-07-12T10:25:34.960Z,98874.73
2018-07-12T10:28:03.320Z,98874.18
2018-07-12T10:30:31.649Z,98869.36
2018-07-12T10:32:59.947Z,98857.98
2018-07-12T10:35:28.233Z,98872.09
2018-07-12T10:37:56.838Z,98865.05
2018-07-12T10:40:25.100Z,98877.58
2018-07-12T10:42:53.404Z,98876.11
2018-07-12T10:45:21.939Z,98872.83
2018-07-12T10:47:50.245Z,98866.61
2018-07-12T10:50:18.682Z,98862.82
2018-07-12T10:52:47.034Z,98851.48
2018-07-12T10:55:15.308Z,98855.02
2018-07-12T10:57:43.651Z,98870.84
2018-07-12T11:00:12.074Z,98866.62
2018-07-12T11:02:40.372Z,98858.98
2018-07-12T11:05:08.714Z,98858.47
2018-07-12T11:07:37.023Z,98865.25
2018-07-12T11:10:05.501Z,98858.42
2018-07-12T11:12:34.175Z,98871.35
2018-07-12T11:15:02.456Z,98865.94
2018-07-12T11:17:30.936Z,98866.51
2018-07-12T11:19:59.772Z,98867.94
2018-07-12T11:22:28.266Z,98853.53
2018-07-12T11:24:56.558Z,98847.89
2018-07-12T11:27:26.132Z,98849.27
2018-07-12T11:29:56.678Z,98860.17
2018-07-12T11:32:25.030Z,98855.56
2018-07-12T11:34:53.332Z,98853.87
2018-07-12T11:37:24.937Z,98853.36
2018-07-12T11:39:53.384Z,98852.41
2018-07-12T11:42:21.711Z,98854.59
2018-07-12T11:44:50.311Z,98853.03
2018-07-12T11:47:19.038Z,98853.69
2018-07-12T11:49:47.485Z,98846.97
2018-07-12T11:52:15.888Z,98851.74
2018-07-12T11:54:44.147Z,98843.73
2018-07-12T11:57:13.247Z,98832.96
2018-07-12T11:59:41.539Z,98836.52
2018-07-12T12:02:09.869Z,98829.98
2018-07-12T12:04:38.217Z,98830.81
2018-07-12T12:07:06.543Z,98830.65
2018-07-12T12:09:35.145Z,98830.22
2018-07-12T12:12:03.575Z,98838.33
2018-07-12T12:14:32.143Z,98834.68
2018-07-12T12:17:00.605Z,98828.06
2018-07-12T12:19:29.103Z,98825.20
2018-07-12T12:21:59.075Z,98824.22
2018-07-12T12:24:27.419Z,98817.74
2018-07-12T12:26:55.790Z,98823.38
2018-07-12T12:29:24.279Z,98812.54
2018-07-12T12:31:52.619Z,98804.84
2018-07-12T12:34:20.965Z,98821.06
2018-07-12T12:36:49.252Z,98824.33
2018-07-12T12:39:17.571Z,98834.37
2018-07-12T12:41:45.957Z,98831.48
2018-07-12T12:44:14.271Z,98828.98
2018-07-12T12:46:42.641Z,98810.00
2018-07-12T12:49:11.141Z,98815.61
2018-07-12T12:51:39.713Z,98825.50
2018-07-12T12:54:08.104Z,98809.88
2018-07-12T12:56:36.763Z,98810.98
2018-07-12T12:59:05.126Z,98808.66
2018-07-12T13:01:33.446Z,98814.66
2018-07-12T13:04:01.775Z,98817.02
2018-07-12T13:06:30.079Z,98808.90
2018-07-12T13:08:58.508Z,98811.01
2018-07-12T13:11:26.808Z,98816.03
2018-07-12T13:13:55.146Z,98822.42
2018-07-12T13:16:23.478Z,98826.88
2018-07-12T13:18:51.766Z,98829.25
2018-07-12T13:21:20.126Z,98834.59
2018-07-12T13:23:48.446Z,98819.53
2018-07-12T13:26:16.786Z,98819.33
2018-07-12T13:28:45.075Z,98824.83
2018-07-12T13:31:13.438Z,98825.29
2018-07-12T13:33:41.730Z,98829.28
2018-07-12T13:36:10.000Z,98831.73
2018-07-12T13:38:38.511Z,98828.45
2018-07-12T13:41:07.198Z,98827.56
2018-07-12T13:43:35.602Z,98823.58
2018-07-12T13:46:03.904Z,98828.05
2018-07-12T13:48:32.295Z,98835.20
2018-07-12T13:51:00.639Z,98849.16
2018-07-12T13:53:29.037Z,98848.73
2018-07-12T13:55:57.384Z,98843.31
2018-07-12T13:58:25.711Z,98853.17
2018-07-12T14:00:54.054Z,98846.45
2018-07-12T14:03:22.354Z,98852.95
2018-07-12T14:05:50.650Z,98857.77
2018-07-12T14:08:18.959Z,98873.41
2018-07-12T14:10:47.379Z,98866.00
2018-07-12T14:13:15.663Z,98864.94
2018-07-12T14:15:44.046Z,98871.31
2018-07-12T14:18:12.822Z,98876.83
2018-07-12T14:20:42.923Z,98875.44
2018-07-12T14:23:11.687Z,98876.09
2018-07-12T14:25:40.004Z,98869.89
2018-07-12T14:28:08.450Z,98872.57
2018-07-12T14:30:38.817Z,98872.03
2018-07-12T14:33:10.815Z,98871.32
2018-07-12T14:35:39.404Z,98864.68
2018-07-12T14:38:08.850Z,98856.97
2018-07-12T14:40:37.586Z,98862.75
2018-07-12T14:43:06.007Z,98861.41
2018-07-12T14:45:34.364Z,98865.66
2018-07-12T14:48:02.677Z,98867.77
2018-07-12T14:50:31.054Z,98870.22
2018-07-12T14:52:59.314Z,98864.02
2018-07-12T14:55:27.729Z,98872.33
2018-07-12T14:57:56.108Z,98870.66
2018-07-12T15:00:24.531Z,98877.19
2018-07-12T15:02:52.916Z,98876.39
2018-07-12T15:05:21.251Z,98860.06
2018-07-12T15:07:49.638Z,98848.51
2018-07-12T15:10:18.011Z,98846.84
2018-07-12T15:12:46.321Z,98847.16
2018-07-12T15:15:14.652Z,98851.19
2018-07-12T15:17:42.911Z,98848.83
2018-07-12T15:20:11.254Z,98853.26
2018-07-12T15:22:39.770Z,98849.44
2018-07-12T15:25:08.166Z,98847.96
2018-07-12T15:27:36.445Z,98855.49
2018-07-12T15:30:04.814Z,98854.77
2018-07-12T15:32:33.111Z,98847.60
2018-07-12T15:35:01.424Z,98841.83
2018-07-12T15:37:29.727Z,98841.52
2018-07-12T15:39:58.044Z,98837.36
2018-07-12T15:42:26.379Z,98826.09
2018-07-12T15:44:54.684Z,98820.07
2018-07-12T15:47:22.997Z,98819.56
2018-07-12T15:49:51.406Z,98817.96
2018-07-12T15:52:21.815Z,98817.49
2018-07-12T15:54:50.268Z,98821.63
2018-07-12T15:57:18.909Z,98821.75
2018-07-12T15:59:47.265Z,98826.28
2018-07-12T16:02:15.770Z,98825.70
2018-07-12T16:04:44.124Z,98833.02
2018-07-12T16:07:12.565Z,98830.68
2018-07-12T16:09:40.936Z,98839.59
2018-07-12T16:12:09.275Z,98835.03
2018-07-12T16:14:38.239Z,98828.07
2018-07-12T16:17:06.936Z,98832.45
2018-07-12T16:19:35.250Z,98831.75
2018-07-12T16:22:04.075Z,98833.94
2018-07-12T16:24:32.422Z,98836.52
2018-07-12T16:27:00.947Z,98835.73
2018-07-12T16:29:29.314Z,98848.00
2018-07-12T16:31:57.819Z,98848.59
2018-07-12T16:34:26.174Z,98847.03
2018-07-12T16:36:54.487Z,98836.66
2018-07-12T16:39:22.809Z,98845.61
2018-07-12T16:41:51.311Z,98839.23
2018-07-12T16:44:19.815Z,98833.02
2018-07-12T16:46:48.204Z,98832.06
2018-07-12T16:49:22.766Z,98825.84
2018-07-12T16:51:51.087Z,98831.88
2018-07-12T16:54:19.674Z,98830.78
2018-07-12T16:56:47.985Z,98838.20
2018-07-12T16:59:16.396Z,98854.05
2018-07-12T17:01:44.846Z,98870.30
2018-07-12T17:04:13.155Z,98874.55
2018-07-12T17:06:41.470Z,98887.05
2018-07-12T17:09:09.746Z,98859.61
2018-07-12T17:11:38.247Z,98845.60
2018-07-12T17:14:06.637Z,98841.46
2018-07-12T17:16:34.928Z,98837.79
2018-07-12T17:19:03.259Z,98820.97
2018-07-12T17:21:32.655Z,98818.84
2018-07-12T17:24:00.932Z,98823.31
2018-07-12T17:26:29.820Z,98835.33
2018-07-12T17:28:59.126Z,98841.29
2018-07-12T17:31:27.487Z,98841.91
2018-07-12T17:33:55.842Z,98849.05
2018-07-12T17:36:24.290Z,98846.14
2018-07-12T17:38:52.628Z,98845.86
2018-07-12T17:41:20.947Z,98856.94
2018-07-12T17:43:49.496Z,98857.22
2018-07-12T17:46:17.923Z,98855.52
2018-07-12T17:48:46.424Z,98855.00
2018-07-12T17:51:14.840Z,98858.19
2018-07-12T17:53:43.402Z,98859.52
2018-07-12T17:56:11.729Z,98866.37
2018-07-12T17:58:40.100Z,98883.08
2018-07-12T18:01:08.600Z,98878.00
2018-07-12T18:03:36.959Z,98895.17
2018-07-12T18:06:05.255Z,98897.37
2018-07-12T18:08:33.663Z,98893.77
2018-07-12T18:11:02.321Z,98889.39
2018-07-12T18:13:30.821Z,98893.38
2018-07-12T18:15:59.425Z,98897.10
2018-07-12T18:18:28.029Z,98896.46
2018-07-12T18:20:56.483Z,98898.01
2018-07-12T18:23:24.853Z,98900.25
2018-07-12T18:25:58.918Z,98905.02
2018-07-12T18:28:27.844Z,98926.45
2018-07-12T18:30:56.928Z,98952.67
2018-07-12T18:33:25.284Z,98952.88
2018-07-12T18:35:53.757Z,98963.84
2018-07-12T18:38:22.237Z,98968.43
2018-07-12T18:40:50.539Z,98971.27
2018-07-12T18:43:18.939Z,98968.94
2018-07-12T18:45:47.482Z,98967.60
2018-07-12T18:48:15.774Z,98973.11
2018-07-12T18:50:44.074Z,98969.41
2018-07-12T18:53:12.795Z,98969.33
2018-07-12T18:55:41.095Z,98973.56
2018-07-12T18:58:09.786Z,98970.75
2018-07-12T19:00:38.340Z,98980.16
2018-07-12T19:03:06.686Z,98983.65
2018-07-12T19:05:35.281Z,98976.02
2018-07-12T19:08:03.771Z,98979.36
2018-07-12T19:10:32.122Z,98981.08
2018-07-12T19:13:00.518Z,98978.27
2018-07-12T19:15:29.172Z,98971.45
2018-07-12T19:17:57.830Z,98973.83
2018-07-12T19:20:26.178Z,98966.80
2018-07-12T19:22:54.532Z,98970.30
2018-07-12T19:25:22.854Z,98964.64
2018-07-12T19:27:51.534Z,98963.47
2018-07-12T19:30:19.948Z,98963.00
2018-07-12T19:32:48.263Z,98975.83
2018-07-12T19:35:16.569Z,98980.27
2018-07-12T19:37:45.553Z,98981.77
2018-07-12T19:40:13.937Z,98983.23
2018-07-12T19:42:42.199Z,98979.52
2018-07-12T19:45:10.505Z,98981.20
2018-07-12T19:47:38.788Z,98985.03
2018-07-12T19:50:07.166Z,98987.70
2018-07-12T19:52:35.462Z,98986.12
2018-07-12T19:55:03.905Z,98989.06
2018-07-12T19:57:32.202Z,98987.31
2018-07-12T20:00:00.505Z,98989.39
2018-07-12T20:02:28.810Z,98989.41
2018-07-12T20:04:57.138Z,98990.91
2018-07-12T20:07:25.568Z,98989.75
2018-07-12T20:09:53.913Z,98990.91
2018-07-12T20:12:22.373Z,98996.80
2018-07-12T20:14:50.755Z,98995.11
2018-07-12T20:17:19.031Z,98996.55
2018-07-12T20:19:48.543Z,98993.84
2018-07-12T20:22:16.983Z,98998.88
2018-07-12T20:24:45.491Z,99001.10
2018-07-12T20:27:16.100Z,99006.46
2018-07-12T20:29:44.498Z,99010.37
2018-07-12T20:32:12.770Z,99006.80
2018-07-12T20:34:41.183Z,99011.70
2018-07-12T20:37:09.475Z,99019.16
2018-07-12T20:39:38.012Z,99019.66
2018-07-12T20:42:06.428Z,99030.25
2018-07-12T20:44:34.762Z,99021.80
2018-07-12T20:47:03.106Z,99026.38
2018-07-12T20:49:31.986Z,99028.91
2018-07-12T20:52:00.271Z,99031.25
2018-07-12T20:54:28.646Z,99030.38
2018-07-12T20:56:56.943Z,99033.91
2018-07-12T20:59:25.471Z,99034.95
2018-07-12T21:01:53.751Z,99042.56
2018-07-12T21:04:22.055Z,99040.37
2018-07-12T21:06:50.356Z,99040.98
2018-07-12T21:09:18.774Z,99044.88
2018-07-12T21:11:47.050Z,99041.67
2018-07-12T21:14:15.490Z,99040.81
2018-07-12T21:16:43.777Z,99045.21
2018-07-12T21:19:12.090Z,99037.22
2018-07-12T21:21:40.380Z,99041.55
2018-07-12T21:24:08.674Z,99043.03
2018-07-12T21:26:36.979Z,99043.05
2018-07-12T21:29:05.343Z,99045.73
2018-07-12T21:31:33.966Z,99049.08
2018-07-12T21:34:02.359Z,99046.08
2018-07-12T21:36:30.723Z,99050.77
2018-07-12T21:38:59.087Z,99045.39
2018-07-12T21:41:27.489Z,99051.61
2018-07-12T21:43:55.812Z,99050.48
2018-07-12T21:46:24.107Z,99044.70
2018-07-12T21:48:52.387Z,99045.21
2018-07-12T21:51:20.763Z,99055.16
2018-07-12T21:53:49.113Z,99047.94
2018-07-12T21:56:17.447Z,99042.20
2018-07-12T21:58:45.707Z,99048.45
2018-07-12T22:01:14.107Z,99053.84
2018-07-12T22:03:42.378Z,99048.77
2018-07-12T22:06:10.699Z,99053.87
2018-07-12T22:08:39.002Z,99058.25
2018-07-12T22:11:07.445Z,99058.13
2018-07-12T22:13:36.978Z,99065.34
2018-07-12T22:16:05.330Z,99058.08
2018-07-12T22:18:33.605Z,99056.56
2018-07-12T22:21:02.013Z,99059.92
2018-07-12T22:23:30.338Z,99058.91
2018-07-12T22:25:58.986Z,99057.91
2018-07-12T22:28:27.337Z,99064.68
2018-07-12T22:30:55.636Z,99056.56
2018-07-12T22:33:23.944Z,99052.03
2018-07-12T22:35:52.327Z,99053.20
2018-07-12T22:38:20.593Z,99051.34
2018-07-12T22:40:48.890Z,99053.23
2018-07-12T22:43:17.166Z,99056.28
2018-07-12T22:45:45.707Z,99066.20
2018-07-12T22:48:14.108Z,99056.66
2018-07-12T22:50:42.382Z,99067.58
2018-07-12T22:53:10.720Z,99061.38
2018-07-12T22:55:40.414Z,99064.08
2018-07-12T22:58:08.807Z,99063.72
2018-07-12T23:00:37.130Z,99066.44
2018-07-12T23:03:05.525Z,99056.00
2018-07-12T23:05:34.598Z,99054.31
2018-07-12T23:08:02.962Z,99057.68
2018-07-12T23:10:31.359Z,99057.52
2018-07-12T23:13:00.151Z,99055.16
2018-07-12T23:15:28.474Z,99051.65
2018-07-12T23:17:56.787Z,99053.84
2018-07-12T23:20:25.125Z,99065.11
2018-07-12T23:22:53.754Z,99061.25
2018-07-12T23:25:22.144Z,99059.05
2018-07-12T23:27:50.456Z,99064.78
2018-07-12T23:30:18.795Z,99063.27
2018-07-12T23:32:47.118Z,99062.59
2018-07-12T23:35:15.435Z,99065.97
2018-07-12T23:37:43.775Z,99059.57
2018-07-12T23:40:12.074Z,99055.52
2018-07-12T23:42:40.417Z,99050.98
2018-07-12T23:45:08.739Z,99057.55
2018-07-12T23:47:37.070Z,99059.73
2018-07-12T23:50:05.387Z,99061.42
2018-07-12T23:52:33.779Z,99060.06
2018-07-12T23:55:02.064Z,99064.13
2018-07-12T23:57:30.561Z,99058.74
2018-07-12T23:59:58.871Z,99062.09
